Hauptseite
METAR-TAF:

METAR-TAF

Flughäfen :

Flughafen Curaçao

Curaçao, Niederländische Antillen

Breite: 12-12N, Länge: 068-58W, Höhe: 9 m

Beobachtung

Neuester Wetterbericht von vor 1 Stunde und 3 Minuten, um 13:00 UTC
Wind 13 kt aus Südost
Temperatur 30°C
Luftfeuchtigkeit 62%
Luftdruck 1015 hPa
Sichtweite 10 km oder mehr

METAR: TNCC 191300Z AUTO 14013KT 9999 NSC 30/22 Q1015 NOSIG

Zeit: 10:03 (14:03 UTC)

Prognose

Neuester Wetterbericht von vor 4 Stunden und 3 Minuten, um 10:00 UTC
Gültige Prognose vom 19 um 12 UTC bis 20 um 12 UTC
Wind 14 kt aus Ost/Südost
Sichtweite 10 km oder mehr
Aufgelockert bewölkt in der Höhe von 2000 ft
Wahrscheinlichkeit 30% :
Zeitweise
vom 19 um 12 UTC bis 19 um 16 UTC
Sichtweite: 7000 m
Durchbrochene Bewölkung in der Höhe von 1500 ft
Regenschauer

TAF: TNCC 191000Z 1912/2012 11014KT 9999 SCT020 PROB30 TEMPO 1912/1916 7000 SHRA BKN015

Wetterbeobachtungen und Prognosen von mehr als 4000 Flughäfen (METAR und TAF Bericht).

Die verfügbaren Stationen werden durch gelbe und rote Markierungen auf der Karte dargestellt.

Führen Sie die Maus auf sie, um den Namen der Station zu sehen.

Darauf klicken, um die Beobachtung von Wetterbeobachtungen und Prognosen zu sehen.

Um die Karte zu ändern : klicken Sie auf den grünen Tasten mit einem schwarzen Kreuz Zum Vergrößern, auf den grünen Button mit einem Gedankenstrich zu verkleinern, oder auf die grünen Pfeile für benachbarte Karten.


METAR-TAF: